sensor_id;sensor_type;location;lat;lon;timestamp;pressure;altitude;pressure_sealevel;temperature;humidity
49178;BME280;35016;55.674;37.468;2023-06-05T00:01:23;99432.16;;;9.35;52.77
49178;BME280;35016;55.674;37.468;2023-06-05T00:03:50;99433.53;;;9.37;52.74
49178;BME280;35016;55.674;37.468;2023-06-05T00:06:20;99427.03;;;9.38;52.77
49178;BME280;35016;55.674;37.468;2023-06-05T00:08:47;99425.72;;;9.41;52.99
49178;BME280;35016;55.674;37.468;2023-06-05T00:11:14;99424.66;;;9.42;52.60
49178;BME280;35016;55.674;37.468;2023-06-05T00:13:41;99428.44;;;9.41;52.83
49178;BME280;35016;55.674;37.468;2023-06-05T00:16:08;99429.25;;;9.41;52.68
49178;BME280;35016;55.674;37.468;2023-06-05T00:18:35;99420.06;;;9.42;53.17
49178;BME280;35016;55.674;37.468;2023-06-05T00:21:01;99423.00;;;9.41;53.11
49178;BME280;35016;55.674;37.468;2023-06-05T00:23:30;99421.69;;;9.43;53.01
49178;BME280;35016;55.674;37.468;2023-06-05T00:25:57;99432.00;;;9.46;53.17
49178;BME280;35016;55.674;37.468;2023-06-05T00:28:24;99433.38;;;9.49;53.06
49178;BME280;35016;55.674;37.468;2023-06-05T00:30:51;99428.53;;;9.51;53.03
49178;BME280;35016;55.674;37.468;2023-06-05T00:33:18;99432.06;;;9.51;52.91
49178;BME280;35016;55.674;37.468;2023-06-05T00:35:45;99430.16;;;9.52;52.70
49178;BME280;35016;55.674;37.468;2023-06-05T00:38:12;99427.44;;;9.52;53.15
49178;BME280;35016;55.674;37.468;2023-06-05T00:40:39;99422.03;;;9.52;53.46
49178;BME280;35016;55.674;37.468;2023-06-05T00:43:05;99429.91;;;9.53;53.29
49178;BME280;35016;55.674;37.468;2023-06-05T00:45:33;99424.28;;;9.55;53.43
49178;BME280;35016;55.674;37.468;2023-06-05T00:48:00;99430.50;;;9.55;52.83
49178;BME280;35016;55.674;37.468;2023-06-05T00:50:28;99431.31;;;9.56;53.26
49178;BME280;35016;55.674;37.468;2023-06-05T00:52:58;99424.81;;;9.57;53.14
49178;BME280;35016;55.674;37.468;2023-06-05T00:55:25;99427.28;;;9.58;53.44
49178;BME280;35016;55.674;37.468;2023-06-05T00:57:53;99423.75;;;9.58;52.92
49178;BME280;35016;55.674;37.468;2023-06-05T01:00:21;99428.09;;;9.59;53.46
49178;BME280;35016;55.674;37.468;2023-06-05T01:02:48;99423.75;;;9.58;53.15
49178;BME280;35016;55.674;37.468;2023-06-05T01:05:15;99424.56;;;9.58;52.98
49178;BME280;35016;55.674;37.468;2023-06-05T01:07:42;99427.03;;;9.60;53.34
49178;BME280;35016;55.674;37.468;2023-06-05T01:10:10;99425.94;;;9.61;53.33
49178;BME280;35016;55.674;37.468;2023-06-05T01:12:50;99422.16;;;9.62;53.74
49178;BME280;35016;55.674;37.468;2023-06-05T01:15:20;99417.31;;;9.64;53.63
49178;BME280;35016;55.674;37.468;2023-06-05T01:17:58;99417.31;;;9.64;53.43
49178;BME280;35016;55.674;37.468;2023-06-05T01:20:34;99414.34;;;9.66;53.73
49178;BME280;35016;55.674;37.468;2023-06-05T01:23:05;99421.66;;;9.65;53.75
49178;BME280;35016;55.674;37.468;2023-06-05T01:25:33;99433.56;;;9.64;53.20
49178;BME280;35016;55.674;37.468;2023-06-05T01:33:19;99421.66;;;9.65;53.75
49178;BME280;35016;55.674;37.468;2023-06-05T01:35:51;99430.59;;;9.66;53.41
49178;BME280;35016;55.674;37.468;2023-06-05T01:38:20;99420.59;;;9.66;53.37
49178;BME280;35016;55.674;37.468;2023-06-05T01:40:48;99427.38;;;9.69;53.52
49178;BME280;35016;55.674;37.468;2023-06-05T01:43:17;99426.31;;;9.70;53.10
49178;BME280;35016;55.674;37.468;2023-06-05T01:45:44;99426.59;;;9.73;53.49
49178;BME280;35016;55.674;37.468;2023-06-05T01:48:12;99434.47;;;9.75;53.51
49178;BME280;35016;55.674;37.468;2023-06-05T01:50:39;99410.66;;;9.77;53.52
49178;BME280;35016;55.674;37.468;2023-06-05T01:53:09;99438.03;;;9.80;53.45
49178;BME280;35016;55.674;37.468;2023-06-05T01:55:38;99432.97;;;9.84;53.47
49178;BME280;35016;55.674;37.468;2023-06-05T01:58:07;99434.34;;;9.86;53.41
49178;BME280;35016;55.674;37.468;2023-06-05T02:00:34;99436.53;;;9.89;53.88
49178;BME280;35016;55.674;37.468;2023-06-05T02:03:03;99447.41;;;9.94;53.13
49178;BME280;35016;55.674;37.468;2023-06-05T02:05:30;99436.31;;;9.96;53.43
49178;BME280;35016;55.674;37.468;2023-06-05T02:07:57;99436.63;;;10.00;53.59
49178;BME280;35016;55.674;37.468;2023-06-05T02:10:25;99441.50;;;10.03;53.24
49178;BME280;35016;55.674;37.468;2023-06-05T02:12:51;99444.78;;;10.05;53.62
49178;BME280;35016;55.674;37.468;2023-06-05T02:15:18;99445.91;;;10.09;53.83
49178;BME280;35016;55.674;37.468;2023-06-05T02:17:45;99446.22;;;10.12;53.56
49178;BME280;35016;55.674;37.468;2023-06-05T02:20:18;99447.59;;;10.15;53.33
49178;BME280;35016;55.674;37.468;2023-06-05T02:22:45;99440.84;;;10.17;53.68
49178;BME280;35016;55.674;37.468;2023-06-05T02:25:12;99441.41;;;10.19;53.80
49178;BME280;35016;55.674;37.468;2023-06-05T02:27:39;99442.81;;;10.22;53.27
49178;BME280;35016;55.674;37.468;2023-06-05T02:30:06;99446.91;;;10.24;53.25
49178;BME280;35016;55.674;37.468;2023-06-05T02:32:34;99442.84;;;10.27;53.43
49178;BME280;35016;55.674;37.468;2023-06-05T02:35:03;99446.13;;;10.29;53.59
49178;BME280;35016;55.674;37.468;2023-06-05T02:37:31;99456.69;;;10.31;53.85
49178;BME280;35016;55.674;37.468;2023-06-05T02:40:04;99449.13;;;10.33;53.50
49178;BME280;35016;55.674;37.468;2023-06-05T02:42:35;99449.41;;;10.36;53.51
49178;BME280;35016;55.674;37.468;2023-06-05T02:45:02;99449.72;;;10.40;53.98
49178;BME280;35016;55.674;37.468;2023-06-05T02:47:31;99458.97;;;10.44;53.62
49178;BME280;35016;55.674;37.468;2023-06-05T02:49:59;99460.09;;;10.48;53.67
49178;BME280;35016;55.674;37.468;2023-06-05T02:52:29;99460.13;;;10.53;53.38
49178;BME280;35016;55.674;37.468;2023-06-05T02:54:58;99464.78;;;10.58;53.43
49178;BME280;35016;55.674;37.468;2023-06-05T02:57:26;99463.16;;;10.62;53.28
49178;BME280;35016;55.674;37.468;2023-06-05T02:59:54;99463.47;;;10.65;53.84
49178;BME280;35016;55.674;37.468;2023-06-05T03:02:22;99475.69;;;10.68;53.41
49178;BME280;35016;55.674;37.468;2023-06-05T03:04:49;99479.78;;;10.70;53.77
49178;BME280;35016;55.674;37.468;2023-06-05T03:07:22;99473.03;;;10.73;53.90
49178;BME280;35016;55.674;37.468;2023-06-05T03:09:50;99468.41;;;10.73;53.05
49178;BME280;35016;55.674;37.468;2023-06-05T03:12:17;99463.84;;;10.79;53.44
49178;BME280;35016;55.674;37.468;2023-06-05T03:14:44;99458.44;;;10.84;53.76
49178;BME280;35016;55.674;37.468;2023-06-05T03:17:11;99456.84;;;10.88;53.16
49178;BME280;35016;55.674;37.468;2023-06-05T03:19:38;99450.06;;;10.91;53.60
49178;BME280;35016;55.674;37.468;2023-06-05T03:22:05;99451.97;;;10.95;53.61
49178;BME280;35016;55.674;37.468;2023-06-05T03:24:35;99453.41;;;11.03;53.76
49178;BME280;35016;55.674;37.468;2023-06-05T03:27:06;99447.47;;;11.11;53.98
49178;BME280;35016;55.674;37.468;2023-06-05T03:29:34;99446.97;;;11.19;53.27
49178;BME280;35016;55.674;37.468;2023-06-05T03:32:01;99443.72;;;11.27;53.32
49178;BME280;35016;55.674;37.468;2023-06-05T03:34:29;99447.03;;;11.34;53.58
49178;BME280;35016;55.674;37.468;2023-06-05T03:37:00;99442.16;;;11.41;53.34
49178;BME280;35016;55.674;37.468;2023-06-05T03:39:27;99441.66;;;11.49;53.23
49178;BME280;35016;55.674;37.468;2023-06-05T03:41:55;99428.13;;;11.60;53.26
49178;BME280;35016;55.674;37.468;2023-06-05T03:44:25;99436.28;;;11.70;53.47
49178;BME280;35016;55.674;37.468;2023-06-05T03:46:52;99442.03;;;11.78;53.50
49178;BME280;35016;55.674;37.468;2023-06-05T03:49:22;99436.59;;;11.84;53.46
49178;BME280;35016;55.674;37.468;2023-06-05T03:51:50;99443.41;;;11.86;53.52
49178;BME280;35016;55.674;37.468;2023-06-05T03:54:17;99443.16;;;11.88;53.56
49178;BME280;35016;55.674;37.468;2023-06-05T03:56:44;99439.34;;;11.89;53.36
49178;BME280;35016;55.674;37.468;2023-06-05T03:59:17;99439.34;;;11.89;53.29
49178;BME280;35016;55.674;37.468;2023-06-05T04:01:55;99431.47;;;11.87;53.45
49178;BME280;35016;55.674;37.468;2023-06-05T04:04:24;99430.38;;;11.88;53.88
49178;BME280;35016;55.674;37.468;2023-06-05T04:06:53;99436.63;;;11.94;53.42
49178;BME280;35016;55.674;37.468;2023-06-05T04:09:22;99440.16;;;11.99;53.92
49178;BME280;35016;55.674;37.468;2023-06-05T04:11:49;99436.63;;;12.04;53.34
49178;BME280;35016;55.674;37.468;2023-06-05T04:14:17;99437.19;;;12.06;53.80
49178;BME280;35016;55.674;37.468;2023-06-05T04:16:44;99438.53;;;12.08;53.36
49178;BME280;35016;55.674;37.468;2023-06-05T04:19:18;99445.59;;;12.09;53.62
49178;BME280;35016;55.674;37.468;2023-06-05T04:21:48;99442.63;;;12.11;53.86
49178;BME280;35016;55.674;37.468;2023-06-05T04:24:15;99448.34;;;12.15;53.57
49178;BME280;35016;55.674;37.468;2023-06-05T04:26:42;99445.63;;;12.20;53.63
49178;BME280;35016;55.674;37.468;2023-06-05T04:29:09;99453.78;;;12.30;53.94
49178;BME280;35016;55.674;37.468;2023-06-05T04:31:43;99457.59;;;12.39;53.61
49178;BME280;35016;55.674;37.468;2023-06-05T04:34:11;99458.41;;;12.45;53.52
49178;BME280;35016;55.674;37.468;2023-06-05T04:36:42;99461.41;;;12.48;53.96
49178;BME280;35016;55.674;37.468;2023-06-05T04:39:09;99455.97;;;12.53;53.63
49178;BME280;35016;55.674;37.468;2023-06-05T04:41:43;99461.41;;;12.53;53.79
49178;BME280;35016;55.674;37.468;2023-06-05T04:44:30;99455.97;;;12.53;53.63
49178;BME280;35016;55.674;37.468;2023-06-05T04:46:58;99458.94;;;12.57;53.69
49178;BME280;35016;55.674;37.468;2023-06-05T04:49:25;99456.22;;;12.62;53.80
49178;BME280;35016;55.674;37.468;2023-06-05T04:51:52;99446.16;;;12.62;53.75
49178;BME280;35016;55.674;37.468;2023-06-05T04:54:20;99449.94;;;12.66;53.90
49178;BME280;35016;55.674;37.468;2023-06-05T04:56:47;99452.13;;;12.69;53.96
49178;BME280;35016;55.674;37.468;2023-06-05T04:59:19;99458.38;;;12.75;53.90
49178;BME280;35016;55.674;37.468;2023-06-05T05:01:46;99452.09;;;12.85;53.93
49178;BME280;35016;55.674;37.468;2023-06-05T05:04:19;99454.78;;;12.95;53.61
49178;BME280;35016;55.674;37.468;2023-06-05T05:06:47;99456.16;;;13.02;54.01
49178;BME280;35016;55.674;37.468;2023-06-05T05:09:14;99448.78;;;13.13;53.77
49178;BME280;35016;55.674;37.468;2023-06-05T05:11:41;99458.28;;;13.21;53.64
49178;BME280;35016;55.674;37.468;2023-06-05T05:14:08;99449.81;;;13.27;53.71
49178;BME280;35016;55.674;37.468;2023-06-05T05:16:35;99447.34;;;13.36;53.84
49178;BME280;35016;55.674;37.468;2023-06-05T05:19:04;99456.28;;;13.47;53.89
49178;BME280;35016;55.674;37.468;2023-06-05T05:21:33;99447.53;;;13.60;53.61
49178;BME280;35016;55.674;37.468;2023-06-05T05:24:03;99454.81;;;13.70;53.80
49178;BME280;35016;55.674;37.468;2023-06-05T05:26:36;99458.00;;;13.82;53.75
49178;BME280;35016;55.674;37.468;2023-06-05T05:29:06;99456.88;;;13.93;53.65
49178;BME280;35016;55.674;37.468;2023-06-05T05:31:34;99453.78;;;14.05;53.65
49178;BME280;35016;55.674;37.468;2023-06-05T05:34:03;99457.84;;;14.07;53.59
49178;BME280;35016;55.674;37.468;2023-06-05T05:36:33;99455.91;;;14.13;53.71
49178;BME280;35016;55.674;37.468;2023-06-05T05:39:00;99460.84;;;14.11;53.77
49178;BME280;35016;55.674;37.468;2023-06-05T05:41:27;99461.13;;;14.09;53.84
49178;BME280;35016;55.674;37.468;2023-06-05T05:43:54;99455.16;;;14.02;53.87
49178;BME280;35016;55.674;37.468;2023-06-05T05:46:21;99457.66;;;13.99;54.22
49178;BME280;35016;55.674;37.468;2023-06-05T05:48:49;99460.13;;;13.95;53.90
49178;BME280;35016;55.674;37.468;2023-06-05T05:51:16;99459.34;;;13.89;54.27
49178;BME280;35016;55.674;37.468;2023-06-05T05:53:43;99469.44;;;13.84;54.21
49178;BME280;35016;55.674;37.468;2023-06-05T05:56:10;99471.41;;;13.78;54.06
49178;BME280;35016;55.674;37.468;2023-06-05T05:58:36;99460.25;;;13.75;54.19
49178;BME280;35016;55.674;37.468;2023-06-05T06:01:06;99466.25;;;13.72;54.21
49178;BME280;35016;55.674;37.468;2023-06-05T06:03:33;99459.75;;;13.68;54.32
49178;BME280;35016;55.674;37.468;2023-06-05T06:06:04;99463.00;;;13.70;54.20
49178;BME280;35016;55.674;37.468;2023-06-05T06:08:34;99473.06;;;13.74;54.00
49178;BME280;35016;55.674;37.468;2023-06-05T06:11:01;99470.03;;;13.76;54.03
49178;BME280;35016;55.674;37.468;2023-06-05T06:13:33;99467.56;;;13.79;54.06
49178;BME280;35016;55.674;37.468;2023-06-05T06:16:01;99470.28;;;13.79;53.80
49178;BME280;35016;55.674;37.468;2023-06-05T06:18:28;99467.81;;;13.83;54.06
49178;BME280;35016;55.674;37.468;2023-06-05T06:20:55;99467.25;;;13.91;54.03
49178;BME280;35016;55.674;37.468;2023-06-05T06:23:22;99477.03;;;13.97;53.98
49178;BME280;35016;55.674;37.468;2023-06-05T06:25:49;99467.19;;;14.01;53.96
49178;BME280;35016;55.674;37.468;2023-06-05T06:28:18;99464.13;;;14.08;53.91
49178;BME280;35016;55.674;37.468;2023-06-05T06:30:46;99457.53;;;14.14;54.01
49178;BME280;35016;55.674;37.468;2023-06-05T06:33:13;99464.59;;;14.20;53.81
49178;BME280;35016;55.674;37.468;2023-06-05T06:35:40;99467.00;;;14.26;53.92
49178;BME280;35016;55.674;37.468;2023-06-05T06:38:07;99469.66;;;14.37;54.13
49178;BME280;35016;55.674;37.468;2023-06-05T06:40:41;99459.50;;;14.42;53.88
49178;BME280;35016;55.674;37.468;2023-06-05T06:43:09;99456.50;;;14.49;53.66
49178;BME280;35016;55.674;37.468;2023-06-05T06:45:45;99454.88;;;14.43;53.70
49178;BME280;35016;55.674;37.468;2023-06-05T06:48:23;99453.31;;;14.32;53.81
49178;BME280;35016;55.674;37.468;2023-06-05T06:50:50;99455.91;;;14.13;53.79
49178;BME280;35016;55.674;37.468;2023-06-05T06:53:25;99460.91;;;14.01;53.89
49178;BME280;35016;55.674;37.468;2023-06-05T06:55:56;99460.63;;;14.02;53.81
49178;BME280;35016;55.674;37.468;2023-06-05T06:58:24;99449.34;;;14.14;53.66
49178;BME280;35016;55.674;37.468;2023-06-05T07:00:51;99444.06;;;14.27;53.32
49178;BME280;35016;55.674;37.468;2023-06-05T07:03:18;99442.31;;;14.42;53.35
49178;BME280;35016;55.674;37.468;2023-06-05T07:05:45;99445.00;;;14.52;53.02
49178;BME280;35016;55.674;37.468;2023-06-05T07:08:12;99437.59;;;14.57;52.71
49178;BME280;35016;55.674;37.468;2023-06-05T07:10:39;99433.16;;;14.62;52.62
49178;BME280;35016;55.674;37.468;2023-06-05T07:13:06;99431.53;;;14.61;52.83
49178;BME280;35016;55.674;37.468;2023-06-05T07:15:33;99432.88;;;14.63;52.62
49178;BME280;35016;55.674;37.468;2023-06-05T07:18:00;99436.91;;;14.71;52.70
49178;BME280;35016;55.674;37.468;2023-06-05T07:20:28;99432.22;;;14.76;52.25
49178;BME280;35016;55.674;37.468;2023-06-05T07:22:55;99436.59;;;14.77;52.57
49178;BME280;35016;55.674;37.468;2023-06-05T07:25:22;99438.66;;;14.85;52.46
49178;BME280;35016;55.674;37.468;2023-06-05T07:27:51;99430.88;;;14.98;52.57
49178;BME280;35016;55.674;37.468;2023-06-05T07:30:21;99439.78;;;15.08;52.19
49178;BME280;35016;55.674;37.468;2023-06-05T07:32:51;99438.03;;;15.17;52.38
49178;BME280;35016;55.674;37.468;2023-06-05T07:35:18;99432.16;;;15.29;52.26
49178;BME280;35016;55.674;37.468;2023-06-05T07:37:45;99441.34;;;15.38;52.18
49178;BME280;35016;55.674;37.468;2023-06-05T07:40:12;99436.28;;;15.50;51.95
49178;BME280;35016;55.674;37.468;2023-06-05T07:42:39;99433.31;;;15.71;52.19
49178;BME280;35016;55.674;37.468;2023-06-05T07:45:07;99432.47;;;15.89;52.05
49178;BME280;35016;55.674;37.468;2023-06-05T07:47:34;99442.84;;;15.92;51.83
49178;BME280;35016;55.674;37.468;2023-06-05T07:50:02;99435.22;;;15.89;52.03
49178;BME280;35016;55.674;37.468;2023-06-05T07:52:32;99434.94;;;15.91;51.84
49178;BME280;35016;55.674;37.468;2023-06-05T07:54:59;99435.59;;;16.01;51.99
49178;BME280;35016;55.674;37.468;2023-06-05T07:57:26;99427.91;;;16.22;51.78
49178;BME280;35016;55.674;37.468;2023-06-05T07:59:56;99418.41;;;16.47;51.50
49178;BME280;35016;55.674;37.468;2023-06-05T08:02:23;99430.97;;;16.67;51.33
49178;BME280;35016;55.674;37.468;2023-06-05T08:04:50;99429.06;;;16.67;51.42
49178;BME280;35016;55.674;37.468;2023-06-05T08:07:17;99428.50;;;16.65;51.87
49178;BME280;35016;55.674;37.468;2023-06-05T08:09:44;99435.19;;;16.59;52.00
49178;BME280;35016;55.674;37.468;2023-06-05T08:12:11;99428.84;;;16.45;52.16
49178;BME280;35016;55.674;37.468;2023-06-05T08:14:38;99436.75;;;16.33;52.29
49178;BME280;35016;55.674;37.468;2023-06-05T08:17:05;99435.03;;;16.18;52.15
49178;BME280;35016;55.674;37.468;2023-06-05T08:19:32;99432.84;;;16.01;52.16
49178;BME280;35016;55.674;37.468;2023-06-05T08:21:59;99416.31;;;15.93;52.53
49178;BME280;35016;55.674;37.468;2023-06-05T08:24:27;99433.06;;;15.86;52.23
49178;BME280;35016;55.674;37.468;2023-06-05T08:26:55;99420.81;;;15.84;52.36
49178;BME280;35016;55.674;37.468;2023-06-05T08:29:22;99421.31;;;15.86;52.46
49178;BME280;35016;55.674;37.468;2023-06-05T08:31:49;99422.94;;;15.87;52.49
49178;BME280;35016;55.674;37.468;2023-06-05T08:34:16;99431.16;;;15.87;52.33
49178;BME280;35016;55.674;37.468;2023-06-05T08:36:43;99418.53;;;15.91;52.11
49178;BME280;35016;55.674;37.468;2023-06-05T08:39:11;99416.81;;;15.95;52.21
49178;BME280;35016;55.674;37.468;2023-06-05T08:41:39;99417.63;;;15.95;51.89
49178;BME280;35016;55.674;37.468;2023-06-05T08:44:06;99407.81;;;15.94;51.93
49178;BME280;35016;55.674;37.468;2023-06-05T08:46:33;99418.75;;;15.94;51.70
49178;BME280;35016;55.674;37.468;2023-06-05T08:49:06;99408.84;;;15.98;51.65
49178;BME280;35016;55.674;37.468;2023-06-05T08:51:34;99408.31;;;15.96;51.86
49178;BME280;35016;55.674;37.468;2023-06-05T08:54:02;99404.41;;;16.02;51.46
49178;BME280;35016;55.674;37.468;2023-06-05T08:56:36;99400.53;;;16.22;51.21
49178;BME280;35016;55.674;37.468;2023-06-05T08:59:04;99397.94;;;16.45;51.15
49178;BME280;35016;55.674;37.468;2023-06-05T09:01:31;99389.81;;;16.72;50.80
49178;BME280;35016;55.674;37.468;2023-06-05T09:04:04;99397.66;;;17.06;50.68
49178;BME280;35016;55.674;37.468;2023-06-05T09:06:31;99396.13;;;17.41;50.17
49178;BME280;35016;55.674;37.468;2023-06-05T09:09:01;99393.03;;;17.70;50.15
49178;BME280;35016;55.674;37.468;2023-06-05T09:11:29;99392.88;;;17.89;50.00
49178;BME280;35016;55.674;37.468;2023-06-05T09:13:57;99384.94;;;17.87;50.18
49178;BME280;35016;55.674;37.468;2023-06-05T09:19:01;99394.84;;;17.75;50.49
49178;BME280;35016;55.674;37.468;2023-06-05T09:21:28;99385.44;;;17.67;50.56
49178;BME280;35016;55.674;37.468;2023-06-05T09:24:12;99376.94;;;17.63;50.63
49178;BME280;35016;55.674;37.468;2023-06-05T09:27:16;99370.88;;;17.67;50.54
49178;BME280;35016;55.674;37.468;2023-06-05T09:29:39;99365.41;;;17.67;50.60
49178;BME280;35016;55.674;37.468;2023-06-05T09:32:07;99375.75;;;17.56;50.55
49178;BME280;35016;55.674;37.468;2023-06-05T09:34:38;99375.81;;;17.42;50.61
49178;BME280;35016;55.674;37.468;2023-06-05T09:37:06;99388.28;;;17.34;50.71
49178;BME280;35016;55.674;37.468;2023-06-05T09:39:34;99393.56;;;17.31;50.84
49178;BME280;35016;55.674;37.468;2023-06-05T09:42:02;99381.72;;;17.22;50.67
49178;BME280;35016;55.674;37.468;2023-06-05T09:44:29;99401.22;;;17.07;50.22
49178;BME280;35016;55.674;37.468;2023-06-05T09:46:57;99405.66;;;16.89;50.56
49178;BME280;35016;55.674;37.468;2023-06-05T09:49:46;99407.66;;;16.69;50.77
49178;BME280;35016;55.674;37.468;2023-06-05T09:52:15;99417.84;;;16.50;51.07
49178;BME280;35016;55.674;37.468;2023-06-05T09:54:42;99398.94;;;16.35;50.93
49178;BME280;35016;55.674;37.468;2023-06-05T09:57:12;99394.38;;;16.30;50.96
49178;BME280;35016;55.674;37.468;2023-06-05T09:59:40;99385.66;;;16.42;51.06
49178;BME280;35016;55.674;37.468;2023-06-05T10:02:12;99382.19;;;16.69;51.19
49178;BME280;35016;55.674;37.468;2023-06-05T10:04:46;99382.63;;;17.03;50.86
49178;BME280;35016;55.674;37.468;2023-06-05T10:07:14;99367.19;;;17.35;50.50
49178;BME280;35016;55.674;37.468;2023-06-05T10:09:41;99371.72;;;17.67;50.39
49178;BME280;35016;55.674;37.468;2023-06-05T10:12:09;99367.94;;;17.99;49.98
49178;BME280;35016;55.674;37.468;2023-06-05T10:14:36;99364.63;;;18.11;49.74
49178;BME280;35016;55.674;37.468;2023-06-05T10:17:03;99361.13;;;18.19;49.61
49178;BME280;35016;55.674;37.468;2023-06-05T10:19:30;99357.78;;;18.22;49.61
49178;BME280;35016;55.674;37.468;2023-06-05T10:21:57;99357.97;;;18.25;49.49
49178;BME280;35016;55.674;37.468;2023-06-05T10:24:25;99361.88;;;18.33;49.55
49178;BME280;35016;55.674;37.468;2023-06-05T10:29:32;99354.03;;;18.49;49.26
49178;BME280;35016;55.674;37.468;2023-06-05T10:32:03;99350.06;;;18.55;49.18
49178;BME280;35016;55.674;37.468;2023-06-05T10:37:35;99358.47;;;18.27;49.37
49178;BME280;35016;55.674;37.468;2023-06-05T10:40:05;99348.34;;;18.14;49.65
49178;BME280;35016;55.674;37.468;2023-06-05T10:42:34;99348.78;;;18.08;50.01
49178;BME280;35016;55.674;37.468;2023-06-05T10:45:02;99339.56;;;18.04;50.14
49178;BME280;35016;55.674;37.468;2023-06-05T10:52:43;99348.69;;;18.44;49.78
49178;BME280;35016;55.674;37.468;2023-06-05T10:55:10;99350.59;;;18.66;49.61
49178;BME280;35016;55.674;37.468;2023-06-05T11:00:31;99344.09;;;18.62;49.22
49178;BME280;35016;55.674;37.468;2023-06-05T11:02:58;99370.88;;;18.25;49.60
49178;BME280;35016;55.674;37.468;2023-06-05T11:05:28;99396.84;;;17.83;49.48
49178;BME280;35016;55.674;37.468;2023-06-05T11:08:13;99449.72;;;17.20;49.54
49178;BME280;35016;55.674;37.468;2023-06-05T11:16:28;99404.25;;;12.74;55.90
49178;BME280;35016;55.674;37.468;2023-06-05T11:19:34;99386.38;;;12.17;56.60
49178;BME280;35016;55.674;37.468;2023-06-05T11:25:40;99362.69;;;12.32;58.28
49178;BME280;35016;55.674;37.468;2023-06-05T11:28:55;99375.66;;;12.76;57.98
49178;BME280;35016;55.674;37.468;2023-06-05T11:31:35;99365.69;;;13.26;58.04
49178;BME280;35016;55.674;37.468;2023-06-05T11:34:38;99358.97;;;13.57;57.46
49178;BME280;35016;55.674;37.468;2023-06-05T11:50:13;99364.97;;;14.27;59.25
49178;BME280;35016;55.674;37.468;2023-06-05T11:53:48;99375.75;;;14.48;59.32
49178;BME280;35016;55.674;37.468;2023-06-05T11:56:28;99384.34;;;14.26;59.75
49178;BME280;35016;55.674;37.468;2023-06-05T11:58:56;99403.13;;;13.99;59.93
49178;BME280;35016;55.674;37.468;2023-06-05T12:01:24;99419.97;;;13.67;60.36
49178;BME280;35016;55.674;37.468;2023-06-05T12:04:02;99435.38;;;13.37;60.71
49178;BME280;35016;55.674;37.468;2023-06-05T12:06:39;99424.53;;;13.12;61.42
49178;BME280;35016;55.674;37.468;2023-06-05T12:09:10;99438.22;;;12.86;61.36
49178;BME280;35016;55.674;37.468;2023-06-05T12:11:38;99431.19;;;12.65;61.23
49178;BME280;35016;55.674;37.468;2023-06-05T12:14:07;99420.34;;;12.45;61.73
49178;BME280;35016;55.674;37.468;2023-06-05T12:16:35;99408.63;;;12.39;61.39
49178;BME280;35016;55.674;37.468;2023-06-05T12:19:03;99396.13;;;12.48;61.66
49178;BME280;35016;55.674;37.468;2023-06-05T12:21:42;99401.44;;;12.94;62.06
49178;BME280;35016;55.674;37.468;2023-06-05T12:24:25;99395.66;;;13.75;61.70
49178;BME280;35016;55.674;37.468;2023-06-05T12:27:17;99391.34;;;15.62;61.73
49178;BME280;35016;55.674;37.468;2023-06-05T12:29:52;99394.88;;;17.33;61.90
49178;BME280;35016;55.674;37.468;2023-06-05T12:32:24;99390.41;;;18.77;61.24
49178;BME280;35016;55.674;37.468;2023-06-05T12:34:52;99381.34;;;19.73;61.78
49178;BME280;35016;55.674;37.468;2023-06-05T12:37:32;99389.06;;;20.23;61.88
49178;BME280;35016;55.674;37.468;2023-06-05T12:40:05;99385.34;;;20.19;62.45
49178;BME280;35016;55.674;37.468;2023-06-05T12:42:36;99390.72;;;19.98;63.36
49178;BME280;35016;55.674;37.468;2023-06-05T12:45:06;99376.78;;;19.77;63.37
49178;BME280;35016;55.674;37.468;2023-06-05T12:47:34;99382.75;;;19.53;64.20
49178;BME280;35016;55.674;37.468;2023-06-05T12:50:01;99385.00;;;19.03;64.67
49178;BME280;35016;55.674;37.468;2023-06-05T12:52:29;99388.59;;;18.50;65.24
49178;BME280;35016;55.674;37.468;2023-06-05T12:55:00;99384.91;;;18.01;65.71
49178;BME280;35016;55.674;37.468;2023-06-05T12:57:27;99388.22;;;17.62;66.05
49178;BME280;35016;55.674;37.468;2023-06-05T12:59:54;99383.34;;;17.23;65.99
49178;BME280;35016;55.674;37.468;2023-06-05T13:02:23;99374.63;;;16.93;66.27
49178;BME280;35016;55.674;37.468;2023-06-05T13:04:50;99384.94;;;16.69;65.85
49178;BME280;35016;55.674;37.468;2023-06-05T13:07:17;99382.56;;;16.49;65.86
49178;BME280;35016;55.674;37.468;2023-06-05T13:09:44;99382.50;;;16.35;66.01
49178;BME280;35016;55.674;37.468;2023-06-05T13:12:11;99372.78;;;16.29;65.51
49178;BME280;35016;55.674;37.468;2023-06-05T13:14:38;99382.31;;;16.31;65.26
49178;BME280;35016;55.674;37.468;2023-06-05T13:17:05;99382.25;;;16.50;65.40
49178;BME280;35016;55.674;37.468;2023-06-05T13:19:32;99376.50;;;16.65;64.87
49178;BME280;35016;55.674;37.468;2023-06-05T13:21:59;99375.41;;;16.66;64.08
49178;BME280;35016;55.674;37.468;2023-06-05T13:24:26;99375.78;;;16.60;63.68
49178;BME280;35016;55.674;37.468;2023-06-05T13:26:53;99366.84;;;16.54;63.90
49178;BME280;35016;55.674;37.468;2023-06-05T13:29:20;99369.28;;;16.56;64.00
49178;BME280;35016;55.674;37.468;2023-06-05T13:31:47;99364.31;;;16.58;63.60
49178;BME280;35016;55.674;37.468;2023-06-05T13:34:14;99362.81;;;16.65;63.05
49178;BME280;35016;55.674;37.468;2023-06-05T13:36:41;99361.63;;;16.85;63.31
49178;BME280;35016;55.674;37.468;2023-06-05T13:39:08;99364.72;;;17.33;63.00
49178;BME280;35016;55.674;37.468;2023-06-05T13:41:36;99353.66;;;18.11;62.81
49178;BME280;35016;55.674;37.468;2023-06-05T13:44:03;99358.56;;;18.76;62.25
49178;BME280;35016;55.674;37.468;2023-06-05T13:46:29;99346.91;;;19.10;61.43
49178;BME280;35016;55.674;37.468;2023-06-05T13:48:56;99348.22;;;19.30;61.34